Terminal Aerodrome Forecast
Issued by NWS

Home | Current Version | Previous Version | Text Only | Print | Product List | Glossary Off
Versions: 1 2 3 4 5 6 7 8 9 10 11 12 13 14 15 16 17 18
000 FTUS41 KBOX 180912 AAA TAFBED TAF AMD KBED 180912Z 1809/1906 08006KT 6SM -RASN OVC008 FM181000 08006KT 3SM -RASN OVC008 FM181100 07006KT 3SM -DZ OVC008 FM182100 04006KT 3SM BR VCSH OVC010=

USA.gov is the U.S. government's official web portal to all federal, state and local government web resources and services.